createdAt,value
2023-04-19T00:00:09.552Z,15.03
2023-04-19T00:03:17.610Z,19.23
2023-04-19T00:06:24.797Z,12.63
2023-04-19T00:09:32.491Z,17.83
2023-04-19T00:12:38.904Z,15.43
2023-04-19T00:15:45.316Z,22.63
2023-04-19T00:18:51.840Z,14.50
2023-04-19T00:21:58.470Z,7.70
2023-04-19T00:25:06.911Z,8.73
2023-04-19T00:28:13.087Z,7.43
2023-04-19T00:31:19.495Z,6.57
2023-04-19T00:34:26.231Z,8.13
2023-04-19T00:37:32.522Z,6.30
2023-04-19T00:40:40.116Z,4.50
2023-04-19T00:43:46.799Z,3.80
2023-04-19T00:46:53.303Z,4.40
2023-04-19T00:49:59.447Z,4.60
2023-04-19T00:53:06.174Z,5.83
2023-04-19T00:56:15.743Z,6.30
2023-04-19T00:59:21.938Z,9.97
2023-04-19T01:02:29.241Z,10.17
2023-04-19T01:05:35.352Z,11.30
2023-04-19T01:08:41.531Z,8.70
2023-04-19T01:11:48.660Z,10.00
2023-04-19T01:14:55.067Z,8.33
2023-04-19T01:18:02.329Z,8.60
2023-04-19T01:21:09.978Z,8.33
2023-04-19T01:24:17.649Z,8.90
2023-04-19T01:27:24.242Z,6.23
2023-04-19T01:30:30.133Z,6.30
2023-04-19T01:33:36.453Z,11.57
2023-04-19T01:36:42.795Z,6.33
2023-04-19T01:39:50.488Z,6.50
2023-04-19T01:42:56.506Z,5.90
2023-04-19T01:46:02.748Z,7.13
2023-04-19T01:49:08.695Z,10.27
2023-04-19T01:52:14.732Z,9.57
2023-04-19T01:55:22.373Z,7.53
2023-04-19T01:58:28.460Z,8.27
2023-04-19T02:01:34.556Z,10.47
2023-04-19T02:04:40.693Z,8.70
2023-04-19T02:07:46.460Z,7.70
2023-04-19T02:10:54.345Z,11.90
2023-04-19T02:14:00.314Z,9.27
2023-04-19T02:17:06.433Z,9.60
2023-04-19T02:20:12.811Z,27.37
2023-04-19T02:23:19.111Z,51.10
2023-04-19T02:26:26.937Z,28.77
2023-04-19T02:29:34.479Z,10.03
2023-04-19T02:32:40.940Z,6.40
2023-04-19T02:35:46.950Z,7.37
2023-04-19T02:38:52.925Z,11.17
2023-04-19T02:42:01.281Z,8.37
2023-04-19T02:45:09.241Z,6.73
2023-04-19T02:48:15.247Z,7.57
2023-04-19T02:51:21.314Z,12.00
2023-04-19T02:54:27.255Z,7.67
2023-04-19T02:57:34.901Z,10.37
2023-04-19T03:00:40.975Z,7.97
2023-04-19T03:03:47.080Z,8.77
2023-04-19T03:06:54.062Z,7.03
2023-04-19T03:10:00.362Z,11.43
2023-04-19T03:13:07.793Z,17.87
2023-04-19T03:16:14.110Z,16.37
2023-04-19T03:19:20.152Z,10.73
2023-04-19T03:22:26.285Z,10.30
2023-04-19T03:25:33.405Z,11.20
2023-04-19T03:28:41.368Z,8.90
2023-04-19T03:31:47.385Z,10.57
2023-04-19T03:34:53.607Z,9.03
2023-04-19T03:37:59.776Z,9.60
2023-04-19T03:41:06.404Z,12.20
2023-04-19T03:44:14.283Z,9.97
2023-04-19T03:47:20.970Z,11.77
2023-04-19T03:50:27.193Z,9.53
2023-04-19T03:53:33.453Z,13.47
2023-04-19T03:56:39.476Z,9.63
2023-04-19T03:59:46.580Z,10.80
2023-04-19T04:02:52.621Z,8.47
2023-04-19T04:05:58.861Z,8.67
2023-04-19T04:09:05.727Z,11.03
2023-04-19T04:12:13.106Z,9.57
2023-04-19T04:15:20.603Z,41.83
2023-04-19T04:18:27.211Z,55.27
2023-04-19T04:21:33.509Z,18.90
2023-04-19T04:24:41.573Z,14.97
2023-04-19T04:27:48.558Z,20.90
2023-04-19T04:30:57.538Z,41.30
2023-04-19T04:34:03.850Z,45.17
2023-04-19T04:37:10.524Z,47.37
2023-04-19T04:40:17.005Z,32.73
2023-04-19T04:43:24.136Z,43.60
2023-04-19T04:46:31.576Z,69.50
2023-04-19T04:49:37.716Z,22.23
2023-04-19T04:52:43.821Z,12.50
2023-04-19T04:55:50.106Z,16.57
2023-04-19T04:58:57.268Z,14.27
2023-04-19T05:02:04.914Z,9.83
2023-04-19T05:05:12.466Z,13.00
2023-04-19T05:08:18.839Z,12.43
2023-04-19T05:11:24.835Z,11.93
2023-04-19T05:14:30.816Z,27.27
2023-04-19T05:17:38.183Z,40.00
2023-04-19T05:20:46.876Z,31.40
2023-04-19T05:23:53.800Z,28.03
2023-04-19T05:26:59.890Z,15.53
2023-04-19T05:30:07.537Z,10.50
2023-04-19T05:33:14.760Z,14.37
2023-04-19T05:36:21.115Z,8.30
2023-04-19T05:39:27.676Z,13.23
2023-04-19T05:42:34.144Z,11.63
2023-04-19T05:45:40.681Z,11.23
2023-04-19T05:48:48.331Z,14.00
2023-04-19T05:51:55.647Z,11.47
2023-04-19T05:55:02.962Z,23.63
2023-04-19T05:58:09.387Z,19.33
2023-04-19T06:01:15.616Z,18.27
2023-04-19T06:04:24.073Z,14.87
2023-04-19T06:07:40.053Z,13.50
2023-04-19T06:10:54.978Z,13.33
2023-04-19T06:14:04.469Z,13.33
2023-04-19T06:17:11.022Z,17.27
2023-04-19T06:20:18.756Z,19.10
2023-04-19T06:23:25.609Z,18.43
2023-04-19T06:26:32.057Z,15.93
2023-04-19T06:29:38.432Z,21.90
2023-04-19T06:32:45.013Z,19.13
2023-04-19T06:35:52.731Z,13.83
2023-04-19T06:38:58.822Z,13.97
2023-04-19T06:42:05.630Z,12.63
2023-04-19T06:45:13.224Z,11.93
2023-04-19T06:48:19.521Z,15.03
2023-04-19T06:51:27.100Z,14.40
2023-04-19T06:54:33.464Z,13.87
2023-04-19T06:57:39.454Z,14.50
2023-04-19T07:00:45.506Z,14.47
2023-04-19T07:03:51.850Z,9.60
2023-04-19T07:07:00.384Z,11.57
2023-04-19T07:10:07.241Z,11.47
2023-04-19T07:13:13.377Z,9.63
2023-04-19T07:16:19.547Z,8.77
2023-04-19T07:19:26.340Z,14.77
2023-04-19T07:22:34.220Z,9.03
2023-04-19T07:25:40.577Z,12.43
2023-04-19T07:28:47.142Z,7.57
2023-04-19T07:31:55.495Z,20.77
2023-04-19T07:35:01.951Z,9.07
2023-04-19T07:38:09.377Z,9.03
2023-04-19T07:41:15.805Z,8.13
2023-04-19T07:44:21.966Z,17.47
2023-04-19T07:47:28.509Z,16.37
2023-04-19T07:50:34.650Z,11.07
2023-04-19T07:53:43.411Z,7.27
2023-04-19T07:56:49.632Z,7.93
2023-04-19T07:59:58.442Z,8.83
2023-04-19T08:03:05.551Z,19.57
2023-04-19T08:06:14.360Z,11.50
2023-04-19T08:09:22.285Z,9.70
2023-04-19T08:12:35.651Z,8.67
2023-04-19T08:18:54.227Z,7.50
2023-04-19T08:22:00.353Z,8.73
2023-04-19T08:25:09.543Z,13.47
2023-04-19T08:28:15.736Z,11.70
2023-04-19T08:31:22.262Z,11.97
2023-04-19T08:34:28.464Z,11.13
2023-04-19T08:37:34.605Z,9.40
2023-04-19T08:40:47.769Z,11.07
2023-04-19T08:43:56.323Z,9.40
2023-04-19T08:47:02.406Z,10.47
2023-04-19T08:50:24.025Z,8.17
2023-04-19T08:53:36.429Z,8.83
2023-04-19T08:56:44.306Z,6.13
2023-04-19T08:59:55.749Z,4.73
2023-04-19T09:03:02.092Z,7.53
2023-04-19T09:06:09.498Z,7.43
2023-04-19T09:12:28.400Z,9.13
2023-04-19T09:15:39.760Z,5.50
2023-04-19T09:19:02.368Z,6.20
2023-04-19T09:22:18.055Z,11.83
2023-04-19T09:28:37.689Z,8.27
2023-04-19T09:31:58.475Z,6.47
2023-04-19T09:35:04.878Z,6.07
2023-04-19T09:38:12.082Z,7.10
2023-04-19T09:41:18.966Z,5.80
2023-04-19T09:47:35.937Z,4.47
2023-04-19T09:51:02.310Z,4.50
2023-04-19T09:54:12.026Z,5.20
2023-04-19T09:57:18.245Z,5.17
2023-04-19T10:00:28.267Z,5.17
2023-04-19T10:03:36.260Z,5.07
2023-04-19T10:06:58.815Z,5.47
2023-04-19T10:10:19.654Z,6.87
2023-04-19T10:13:27.601Z,4.87
2023-04-19T10:16:35.974Z,3.53
2023-04-19T10:19:43.131Z,5.47
2023-04-19T10:22:49.376Z,4.67
2023-04-19T10:25:57.961Z,4.30
2023-04-19T10:29:03.982Z,4.27
2023-04-19T10:32:14.894Z,7.47
2023-04-19T10:35:23.297Z,9.57
2023-04-19T10:38:40.545Z,5.00
2023-04-19T10:41:59.505Z,5.23
2023-04-19T10:45:33.755Z,4.77
2023-04-19T10:48:44.244Z,7.33
2023-04-19T10:51:52.978Z,7.83
2023-04-19T10:54:58.853Z,6.83
2023-04-19T10:58:06.639Z,8.43
2023-04-19T11:01:33.986Z,8.00
2023-04-19T11:05:14.036Z,7.57
2023-04-19T11:08:24.637Z,7.50
2023-04-19T11:11:30.516Z,5.07
2023-04-19T11:14:38.150Z,4.77
2023-04-19T11:17:44.401Z,5.80
2023-04-19T11:20:55.871Z,4.90
2023-04-19T11:24:11.433Z,7.00
2023-04-19T11:27:17.445Z,4.83
2023-04-19T11:30:24.413Z,7.53
2023-04-19T11:33:34.711Z,5.20
2023-04-19T11:36:51.341Z,4.27
2023-04-19T11:39:57.271Z,3.80
2023-04-19T11:43:05.628Z,4.07
2023-04-19T11:46:13.515Z,4.63
2023-04-19T11:49:27.436Z,3.93
2023-04-19T11:52:36.979Z,3.67
2023-04-19T11:55:52.394Z,2.57
2023-04-19T11:58:59.659Z,3.30
2023-04-19T12:02:10.573Z,3.57
2023-04-19T12:05:17.783Z,3.43
2023-04-19T12:08:36.608Z,3.00
2023-04-19T12:11:46.948Z,2.93
2023-04-19T12:14:53.884Z,4.83
2023-04-19T12:18:02.127Z,2.53
2023-04-19T12:21:08.458Z,3.23
2023-04-19T12:24:17.979Z,2.67
2023-04-19T12:27:25.760Z,3.33
2023-04-19T12:30:32.363Z,3.60
2023-04-19T12:33:38.728Z,3.30
2023-04-19T12:36:45.119Z,3.17
2023-04-19T12:39:53.741Z,4.23
2023-04-19T12:43:01.974Z,2.97
2023-04-19T12:46:08.216Z,9.37
2023-04-19T12:49:14.479Z,31.87
2023-04-19T12:52:21.467Z,7.03
2023-04-19T12:55:29.214Z,5.60
2023-04-19T12:58:35.776Z,5.20
2023-04-19T13:01:42.248Z,8.90
2023-04-19T13:04:48.753Z,6.80
2023-04-19T13:07:54.828Z,5.00
2023-04-19T13:11:02.994Z,4.17
2023-04-19T13:14:09.094Z,3.63
2023-04-19T13:17:15.190Z,6.57
2023-04-19T13:20:21.302Z,4.97
2023-04-19T13:23:27.401Z,5.23
2023-04-19T13:26:35.698Z,3.70
2023-04-19T13:29:42.003Z,4.53
2023-04-19T13:32:48.034Z,2.67
2023-04-19T13:35:54.243Z,2.63
2023-04-19T13:39:00.894Z,3.47
2023-04-19T13:42:08.632Z,3.63
2023-04-19T13:45:15.803Z,3.00
2023-04-19T13:48:22.099Z,3.73
2023-04-19T13:51:38.801Z,5.47
2023-04-19T13:54:53.566Z,8.07
2023-04-19T13:58:01.139Z,4.53
2023-04-19T14:01:07.518Z,2.70
2023-04-19T14:04:13.916Z,11.03
2023-04-19T14:07:20.247Z,4.77
2023-04-19T14:10:26.130Z,2.90
2023-04-19T14:13:33.728Z,9.10
2023-04-19T14:16:39.663Z,9.20
2023-04-19T14:19:45.721Z,3.10
2023-04-19T14:22:52.095Z,4.30
2023-04-19T14:25:58.217Z,2.30
2023-04-19T14:29:06.648Z,2.90
2023-04-19T14:32:25.100Z,3.47
2023-04-19T14:35:32.184Z,9.03
2023-04-19T14:38:38.445Z,5.60
2023-04-19T14:41:44.449Z,3.30
2023-04-19T14:44:53.298Z,3.27
2023-04-19T14:47:59.452Z,3.70
2023-04-19T14:51:05.821Z,3.23
2023-04-19T14:54:11.800Z,4.33
2023-04-19T14:57:18.018Z,3.20
2023-04-19T15:00:25.760Z,2.53
2023-04-19T15:03:32.412Z,3.87
2023-04-19T15:06:38.845Z,4.90
2023-04-19T15:09:44.944Z,7.37
2023-04-19T15:12:50.896Z,5.20
2023-04-19T15:16:00.021Z,4.00
2023-04-19T15:19:07.705Z,3.83
2023-04-19T15:22:14.207Z,3.93
2023-04-19T15:25:20.268Z,3.47
2023-04-19T15:28:26.945Z,4.33
2023-04-19T15:31:35.044Z,4.53
2023-04-19T15:34:41.075Z,4.90
2023-04-19T15:37:48.601Z,5.67
2023-04-19T15:40:56.087Z,6.40
2023-04-19T15:44:02.671Z,20.73
2023-04-19T15:47:10.465Z,30.93
2023-04-19T15:50:16.673Z,12.03
2023-04-19T15:53:23.188Z,20.30
2023-04-19T15:56:29.246Z,30.30
2023-04-19T15:59:35.212Z,48.77
2023-04-19T16:02:42.803Z,19.37
2023-04-19T16:05:51.697Z,98.90
2023-04-19T16:08:57.955Z,44.70
2023-04-19T16:12:04.027Z,180.00
2023-04-19T16:15:10.781Z,57.40
2023-04-19T16:18:18.275Z,59.37
2023-04-19T16:21:24.369Z,76.53
2023-04-19T16:24:30.441Z,78.80
2023-04-19T16:27:36.739Z,55.80
2023-04-19T16:30:42.913Z,46.67
2023-04-19T16:33:50.456Z,13.70
2023-04-19T16:36:56.997Z,18.00
2023-04-19T16:40:07.177Z,30.37
2023-04-19T16:43:13.009Z,29.80
2023-04-19T16:46:19.253Z,24.67
2023-04-19T16:49:26.645Z,29.47
2023-04-19T16:52:35.356Z,22.97
2023-04-19T16:55:41.388Z,24.67
2023-04-19T16:58:47.539Z,24.30
2023-04-19T17:01:59.614Z,15.90
2023-04-19T17:05:10.033Z,19.37
2023-04-19T17:08:16.249Z,15.20
2023-04-19T17:11:22.241Z,13.77
2023-04-19T17:14:29.145Z,16.80
2023-04-19T17:17:35.228Z,20.87
2023-04-19T17:20:42.687Z,11.73
2023-04-19T17:23:49.090Z,10.17
2023-04-19T17:26:55.220Z,13.53
2023-04-19T17:30:01.426Z,9.47
2023-04-19T17:33:07.871Z,9.70
2023-04-19T17:36:15.932Z,19.90
2023-04-19T17:39:21.870Z,19.50
2023-04-19T17:42:28.031Z,15.57
2023-04-19T17:45:34.461Z,17.40
2023-04-19T17:48:40.894Z,13.10
2023-04-19T17:51:48.636Z,13.07
2023-04-19T17:54:54.969Z,14.67
2023-04-19T17:58:01.324Z,10.90
2023-04-19T18:01:08.970Z,14.43
2023-04-19T18:04:18.045Z,13.93
2023-04-19T18:07:26.028Z,12.80
2023-04-19T18:10:32.186Z,11.10
2023-04-19T18:13:38.141Z,10.17
2023-04-19T18:16:43.971Z,11.47
2023-04-19T18:19:50.085Z,27.90
2023-04-19T18:23:00.158Z,21.80
2023-04-19T18:26:06.483Z,28.27
2023-04-19T18:29:13.154Z,35.43
2023-04-19T18:32:19.236Z,51.17
2023-04-19T18:35:25.202Z,44.00
2023-04-19T18:38:33.123Z,48.60
2023-04-19T18:41:39.424Z,36.97
2023-04-19T18:44:53.522Z,36.00
2023-04-19T18:48:01.954Z,48.13
2023-04-19T18:51:10.275Z,55.07
2023-04-19T18:54:17.539Z,49.87
2023-04-19T18:57:27.069Z,48.10
2023-04-19T19:00:33.856Z,44.47
2023-04-19T19:04:07.832Z,45.40
2023-04-19T19:07:18.128Z,31.73
2023-04-19T19:10:58.858Z,36.80
2023-04-19T19:13:59.896Z,33.33
2023-04-19T19:17:07.180Z,45.50
2023-04-19T19:20:13.776Z,43.47
2023-04-19T19:23:20.558Z,37.47
2023-04-19T19:26:39.295Z,33.10
2023-04-19T19:29:46.997Z,27.93
2023-04-19T19:32:53.134Z,31.70
2023-04-19T19:35:59.557Z,28.00
2023-04-19T19:39:05.836Z,33.40
2023-04-19T19:42:14.282Z,24.47
2023-04-19T19:45:20.600Z,20.87
2023-04-19T19:48:29.925Z,17.70
2023-04-19T19:51:56.841Z,16.10
2023-04-19T19:55:02.816Z,20.93
2023-04-19T19:58:39.273Z,24.73
2023-04-19T20:01:37.511Z,27.93
2023-04-19T20:04:44.021Z,26.37
2023-04-19T20:10:59.876Z,58.07
2023-04-19T20:14:07.667Z,36.93
2023-04-19T20:17:13.902Z,29.57
2023-04-19T20:20:21.032Z,81.30
2023-04-19T20:23:27.290Z,55.70
2023-04-19T20:26:33.907Z,45.93
2023-04-19T20:29:41.275Z,34.00
2023-04-19T20:32:48.595Z,33.17
2023-04-19T20:35:55.546Z,26.40
2023-04-19T20:39:06.569Z,25.27
2023-04-19T20:42:12.965Z,20.97
2023-04-19T20:45:21.020Z,25.07
2023-04-19T20:48:27.326Z,29.07
2023-04-19T20:51:33.481Z,30.90
2023-04-19T20:54:39.401Z,26.97
2023-04-19T20:57:45.774Z,36.17
2023-04-19T21:00:53.294Z,22.17
2023-04-19T21:03:59.629Z,20.57
2023-04-19T21:07:06.029Z,18.90
2023-04-19T21:10:13.842Z,17.20
2023-04-19T21:13:20.090Z,24.80
2023-04-19T21:16:27.729Z,20.63
2023-04-19T21:19:34.073Z,18.17
2023-04-19T21:22:40.847Z,13.63
2023-04-19T21:25:46.743Z,15.20
2023-04-19T21:28:53.148Z,17.67
2023-04-19T21:32:00.960Z,18.83
2023-04-19T21:35:08.460Z,18.87
2023-04-19T21:38:14.858Z,18.17
2023-04-19T21:41:21.023Z,15.80
2023-04-19T21:44:27.341Z,17.53
2023-04-19T21:47:34.991Z,17.83
2023-04-19T21:50:41.675Z,10.63
2023-04-19T21:53:47.897Z,10.30
2023-04-19T21:56:53.831Z,11.33
2023-04-19T21:59:59.795Z,11.77
2023-04-19T22:03:07.730Z,16.20
2023-04-19T22:06:17.196Z,9.93
2023-04-19T22:09:23.065Z,13.77
2023-04-19T22:12:29.436Z,10.90
2023-04-19T22:15:35.558Z,11.23
2023-04-19T22:18:43.320Z,11.73
2023-04-19T22:21:49.307Z,11.37
2023-04-19T22:24:58.033Z,8.63
2023-04-19T22:28:07.234Z,10.63
2023-04-19T22:31:13.888Z,12.00
2023-04-19T22:34:21.175Z,13.20
2023-04-19T22:37:27.280Z,12.77
2023-04-19T22:40:33.540Z,14.00
2023-04-19T22:43:39.683Z,16.23
2023-04-19T22:46:45.540Z,16.67
2023-04-19T22:49:53.219Z,14.53
2023-04-19T22:52:59.423Z,15.30
2023-04-19T22:56:06.053Z,19.17
2023-04-19T22:59:13.491Z,18.13
2023-04-19T23:02:19.816Z,14.93
2023-04-19T23:05:28.003Z,33.53
2023-04-19T23:08:34.816Z,23.10
2023-04-19T23:11:40.956Z,13.90
2023-04-19T23:14:48.570Z,12.13
2023-04-19T23:17:54.941Z,9.57
2023-04-19T23:21:02.325Z,9.90
2023-04-19T23:24:08.421Z,14.47
2023-04-19T23:27:14.884Z,17.07
2023-04-19T23:30:21.430Z,17.53
2023-04-19T23:33:27.361Z,12.93
2023-04-19T23:36:34.735Z,14.50
2023-04-19T23:39:41.238Z,13.80
2023-04-19T23:42:47.246Z,24.50
2023-04-19T23:45:53.537Z,24.30
2023-04-19T23:48:59.500Z,20.00
2023-04-19T23:52:07.025Z,22.80
2023-04-19T23:55:13.784Z,19.43
2023-04-19T23:58:19.964Z,24.80
